createdAt,value
2023-11-21T00:02:19.569Z,99631.97
2023-11-21T00:04:46.871Z,99633.63
2023-11-21T00:07:13.584Z,99625.13
2023-11-21T00:09:40.191Z,99634.72
2023-11-21T00:12:07.139Z,99630.41
2023-11-21T00:14:34.315Z,99629.53
2023-11-21T00:17:00.891Z,99635.75
2023-11-21T00:19:27.496Z,99626.00
2023-11-21T00:21:54.038Z,99632.03
2023-11-21T00:24:20.641Z,99626.31
2023-11-21T00:26:49.807Z,99631.50
2023-11-21T00:29:18.531Z,99636.44
2023-11-21T00:31:46.224Z,99628.94
2023-11-21T00:34:13.829Z,99631.28
2023-11-21T00:36:41.336Z,99632.06
2023-11-21T00:39:08.685Z,99632.22
2023-11-21T00:41:37.715Z,99633.72
2023-11-21T00:44:04.802Z,99625.94
2023-11-21T00:46:31.452Z,99624.09
2023-11-21T00:48:58.615Z,99621.13
2023-11-21T00:51:25.712Z,99618.97
2023-11-21T00:53:52.372Z,99623.38
2023-11-21T00:56:19.591Z,99617.06
2023-11-21T00:58:50.993Z,99612.25
2023-11-21T01:01:18.470Z,99616.59
2023-11-21T01:03:47.496Z,99605.31
2023-11-21T01:06:16.150Z,99607.22
2023-11-21T01:08:43.447Z,99603.69
2023-11-21T01:11:11.608Z,99608.13
2023-11-21T01:13:38.408Z,99603.81
2023-11-21T01:16:05.436Z,99609.06
2023-11-21T01:18:32.032Z,99609.91
2023-11-21T01:20:58.668Z,99615.16
2023-11-21T01:23:25.182Z,99608.44
2023-11-21T01:25:53.113Z,99604.91
2023-11-21T01:28:21.196Z,99620.56
2023-11-21T01:30:47.839Z,99628.00
2023-11-21T01:33:16.881Z,99631.41
2023-11-21T01:35:44.111Z,99626.19
2023-11-21T01:38:10.748Z,99622.88
2023-11-21T01:40:37.595Z,99627.00
2023-11-21T01:43:07.050Z,99625.50
2023-11-21T01:45:35.155Z,99629.81
2023-11-21T01:48:04.121Z,99631.28
2023-11-21T01:50:31.468Z,99637.63
2023-11-21T01:52:58.935Z,99633.72
2023-11-21T01:55:28.174Z,99626.75
2023-11-21T01:57:57.486Z,99612.91
2023-11-21T02:00:25.023Z,99597.69
2023-11-21T02:02:53.306Z,99587.00
2023-11-21T02:05:20.663Z,99586.13
2023-11-21T02:07:52.156Z,99572.34
2023-11-21T02:10:23.962Z,99558.09
2023-11-21T02:12:51.513Z,99555.28
2023-11-21T02:15:21.611Z,99549.84
2023-11-21T02:17:53.383Z,99548.69
2023-11-21T02:20:21.630Z,99549.25
2023-11-21T02:23:02.236Z,99540.75
2023-11-21T02:25:34.381Z,99538.44
2023-11-21T02:28:03.551Z,99534.94
2023-11-21T02:30:32.781Z,99536.63
2023-11-21T02:32:59.431Z,99526.06
2023-11-21T02:35:29.140Z,99522.81
2023-11-21T02:37:56.104Z,99520.28
2023-11-21T02:40:23.163Z,99509.34
2023-11-21T02:42:52.451Z,99508.16
2023-11-21T02:45:22.053Z,99508.06
2023-11-21T02:47:50.496Z,99501.31
2023-11-21T02:50:20.275Z,99489.44
2023-11-21T02:52:47.142Z,99494.28
2023-11-21T02:55:13.818Z,99493.56
2023-11-21T02:57:40.452Z,99492.69
2023-11-21T03:00:16.748Z,99485.81
2023-11-21T03:02:44.737Z,99474.47
2023-11-21T03:05:11.642Z,99472.59
2023-11-21T03:07:39.762Z,99464.34
2023-11-21T03:10:10.664Z,99484.84
2023-11-21T03:12:38.787Z,99473.63
2023-11-21T03:15:07.655Z,99474.41
2023-11-21T03:17:37.643Z,99468.59
2023-11-21T03:20:06.063Z,99459.97
2023-11-21T03:22:32.802Z,99455.00
2023-11-21T03:24:59.800Z,99449.97
2023-11-21T03:27:26.675Z,99451.75
2023-11-21T03:29:53.481Z,99453.34
2023-11-21T03:32:20.129Z,99451.09
2023-11-21T03:34:59.072Z,99450.34
2023-11-21T03:37:26.190Z,99447.06
2023-11-21T03:39:53.006Z,99448.13
2023-11-21T03:42:19.693Z,99453.06
2023-11-21T03:44:46.341Z,99445.50
2023-11-21T03:47:12.996Z,99453.28
2023-11-21T03:49:39.850Z,99453.00
2023-11-21T03:52:06.949Z,99448.91
2023-11-21T03:54:33.459Z,99450.75
2023-11-21T03:57:00.049Z,99451.28
2023-11-21T03:59:26.705Z,99450.47
2023-11-21T04:01:53.334Z,99453.25
2023-11-21T04:04:20.980Z,99446.53
2023-11-21T04:06:47.614Z,99438.56
2023-11-21T04:09:14.127Z,99441.13
2023-11-21T04:11:40.663Z,99437.78
2023-11-21T04:14:07.672Z,99428.38
2023-11-21T04:16:34.813Z,99433.16
2023-11-21T04:19:01.472Z,99427.25
2023-11-21T04:21:28.109Z,99425.84
2023-11-21T04:23:54.687Z,99432.56
2023-11-21T04:26:21.229Z,99423.31
2023-11-21T04:28:47.813Z,99421.84
2023-11-21T04:31:14.429Z,99416.03
2023-11-21T04:33:41.082Z,99423.78
2023-11-21T04:36:08.329Z,99416.94
2023-11-21T04:38:35.351Z,99421.19
2023-11-21T04:41:03.821Z,99416.63
2023-11-21T04:43:30.961Z,99407.41
2023-11-21T04:45:57.657Z,99410.13
2023-11-21T04:48:24.396Z,99412.66
2023-11-21T04:50:51.097Z,99412.84
2023-11-21T04:53:17.665Z,99410.03
2023-11-21T04:55:45.095Z,99410.13
2023-11-21T04:58:13.164Z,99398.22
2023-11-21T05:00:39.836Z,99410.06
2023-11-21T05:03:08.434Z,99407.47
2023-11-21T05:05:35.214Z,99405.78
2023-11-21T05:08:02.902Z,99397.56
2023-11-21T05:10:30.409Z,99408.84
2023-11-21T05:12:57.057Z,99409.75
2023-11-21T05:15:24.497Z,99401.09
2023-11-21T05:17:53.449Z,99404.47
2023-11-21T05:20:24.773Z,99401.19
2023-11-21T05:22:51.545Z,99399.28
2023-11-21T05:25:19.598Z,99399.47
2023-11-21T05:27:47.711Z,99412.94
2023-11-21T05:30:15.423Z,99411.03
2023-11-21T05:32:45.595Z,99400.34
2023-11-21T05:35:17.265Z,99407.22
2023-11-21T05:37:45.605Z,99398.94
2023-11-21T05:40:13.929Z,99406.47
2023-11-21T05:42:41.920Z,99410.66
2023-11-21T05:45:12.805Z,99407.31
2023-11-21T05:47:47.536Z,99418.94
2023-11-21T05:50:16.540Z,99410.50
2023-11-21T05:52:48.379Z,99417.13
2023-11-21T05:55:15.419Z,99405.63
2023-11-21T05:57:43.355Z,99401.69
2023-11-21T06:00:12.534Z,99402.66
2023-11-21T06:02:40.708Z,99402.78
2023-11-21T06:05:08.746Z,99396.81
2023-11-21T06:07:37.060Z,99386.34
2023-11-21T06:10:07.573Z,99398.63
2023-11-21T06:12:37.189Z,99395.72
2023-11-21T06:15:10.068Z,99399.41
2023-11-21T06:17:38.092Z,99401.63
2023-11-21T06:20:10.457Z,99400.78
2023-11-21T06:22:41.623Z,99405.28
2023-11-21T06:25:09.500Z,99404.38
2023-11-21T06:27:39.593Z,99412.78
2023-11-21T06:30:08.298Z,99394.78
2023-11-21T06:32:35.854Z,99403.41
2023-11-21T06:35:03.033Z,99393.38
2023-11-21T06:37:30.405Z,99397.66
2023-11-21T06:39:59.277Z,99390.63
2023-11-21T06:42:30.301Z,99395.75
2023-11-21T06:44:58.583Z,99401.94
2023-11-21T06:47:30.917Z,99407.81
2023-11-21T06:49:58.147Z,99414.31
2023-11-21T06:52:24.777Z,99402.69
2023-11-21T06:54:51.366Z,99401.09
2023-11-21T06:57:18.408Z,99408.50
2023-11-21T06:59:45.293Z,99406.13
2023-11-21T07:02:12.110Z,99409.19
2023-11-21T07:04:38.823Z,99420.41
2023-11-21T07:07:05.693Z,99419.91
2023-11-21T07:09:32.354Z,99404.81
2023-11-21T07:11:59.156Z,99410.34
2023-11-21T07:14:25.782Z,99418.88
2023-11-21T07:16:53.990Z,99417.16
2023-11-21T07:19:21.287Z,99430.97
2023-11-21T07:21:48.100Z,99431.97
2023-11-21T07:24:15.226Z,99435.97
2023-11-21T07:26:41.824Z,99437.78
2023-11-21T07:29:10.090Z,99449.81
2023-11-21T07:31:36.844Z,99440.94
2023-11-21T07:34:03.534Z,99467.59
2023-11-21T07:36:30.143Z,99475.81
2023-11-21T07:38:56.761Z,99476.09
2023-11-21T07:41:28.861Z,99480.88
2023-11-21T07:43:58.504Z,99496.13
2023-11-21T07:46:27.691Z,99501.63
2023-11-21T07:48:54.619Z,99504.09
2023-11-21T07:51:21.575Z,99506.97
2023-11-21T07:53:50.265Z,99512.78
2023-11-21T07:56:16.870Z,99519.25
2023-11-21T07:58:46.255Z,99529.63
2023-11-21T08:01:13.970Z,99526.28
2023-11-21T08:03:43.154Z,99540.22
2023-11-21T08:06:10.775Z,99546.25
2023-11-21T08:08:37.353Z,99544.66
2023-11-21T08:11:04.685Z,99550.44
2023-11-21T08:13:34.078Z,99558.25
2023-11-21T08:16:06.007Z,99561.69
2023-11-21T08:18:39.862Z,99562.59
2023-11-21T08:21:13.657Z,99555.50
2023-11-21T08:23:40.668Z,99552.78
2023-11-21T08:26:14.594Z,99550.13
2023-11-21T08:28:45.205Z,99551.09
2023-11-21T08:31:16.146Z,99547.59
2023-11-21T08:33:42.964Z,99543.41
2023-11-21T08:36:12.118Z,99542.69
2023-11-21T08:38:38.820Z,99545.31
2023-11-21T08:41:08.788Z,99541.03
2023-11-21T08:43:41.536Z,99540.53
2023-11-21T08:46:10.322Z,99531.00
2023-11-21T08:48:37.676Z,99539.47
2023-11-21T08:51:05.784Z,99536.25
2023-11-21T08:53:32.319Z,99542.19
2023-11-21T08:55:58.939Z,99532.75
2023-11-21T08:58:25.532Z,99533.88
2023-11-21T09:00:52.554Z,99523.31
2023-11-21T09:03:19.233Z,99527.19
2023-11-21T09:05:45.918Z,99532.09
2023-11-21T09:08:13.033Z,99527.81
2023-11-21T09:10:40.871Z,99532.22
2023-11-21T09:13:11.354Z,99525.56
2023-11-21T09:15:38.093Z,99532.13
2023-11-21T09:18:06.245Z,99526.94
2023-11-21T09:20:33.074Z,99517.84
2023-11-21T09:22:59.699Z,99509.22
2023-11-21T09:25:26.304Z,99517.25
2023-11-21T09:27:52.877Z,99508.47
2023-11-21T09:30:19.641Z,99511.47
2023-11-21T09:32:46.943Z,99506.94
2023-11-21T09:35:15.499Z,99500.44
2023-11-21T09:37:42.762Z,99493.31
2023-11-21T09:40:14.597Z,99495.84
2023-11-21T09:42:52.137Z,99494.34
2023-11-21T09:45:27.105Z,99490.81
2023-11-21T09:47:57.094Z,99497.44
2023-11-21T09:50:24.601Z,99495.28
2023-11-21T09:53:02.041Z,99489.84
2023-11-21T09:55:36.868Z,99488.34
2023-11-21T09:58:06.290Z,99491.72
2023-11-21T10:00:34.314Z,99481.66
2023-11-21T10:03:01.452Z,99473.28
2023-11-21T10:05:29.521Z,99474.69
2023-11-21T10:07:58.745Z,99469.78
2023-11-21T10:10:26.673Z,99468.03
2023-11-21T10:12:57.694Z,99473.13
2023-11-21T10:15:28.044Z,99464.00
2023-11-21T10:17:56.486Z,99460.63
2023-11-21T10:20:25.753Z,99459.97
2023-11-21T10:22:52.835Z,99446.97
2023-11-21T10:25:21.574Z,99446.25
2023-11-21T10:27:51.710Z,99442.28
2023-11-21T10:30:19.210Z,99444.84
2023-11-21T10:32:46.231Z,99439.75
2023-11-21T10:35:13.346Z,99436.03
2023-11-21T10:37:44.497Z,99435.81
2023-11-21T10:40:14.820Z,99430.91
2023-11-21T10:42:42.973Z,99424.50
2023-11-21T10:45:15.045Z,99429.53
2023-11-21T10:47:43.073Z,99434.84
2023-11-21T10:50:12.294Z,99429.59
2023-11-21T10:52:41.210Z,99438.94
2023-11-21T10:55:22.490Z,99433.91
2023-11-21T10:57:52.174Z,99442.47
2023-11-21T11:00:21.806Z,99449.44
2023-11-21T11:02:53.278Z,99437.03
2023-11-21T11:05:21.400Z,99442.06
2023-11-21T11:07:55.918Z,99441.13
2023-11-21T11:10:23.919Z,99448.19
2023-11-21T11:12:53.572Z,99458.97
2023-11-21T11:15:20.943Z,99461.06
2023-11-21T11:17:49.626Z,99461.03
2023-11-21T11:20:19.172Z,99481.78
2023-11-21T11:23:05.484Z,99495.84
2023-11-21T11:25:49.126Z,99542.50
2023-11-21T11:28:21.374Z,99554.75
2023-11-21T11:31:12.904Z,99574.03
2023-11-21T11:33:51.660Z,99586.19
2023-11-21T11:36:57.392Z,99606.41
2023-11-21T11:39:42.855Z,99601.66
2023-11-21T11:42:19.991Z,99609.34
2023-11-21T11:44:53.304Z,99618.81
2023-11-21T11:47:30.045Z,99611.91
2023-11-21T11:49:58.189Z,99605.56
2023-11-21T11:52:40.831Z,99604.97
2023-11-21T11:55:21.343Z,99595.22
2023-11-21T11:57:57.015Z,99582.75
2023-11-21T12:00:36.094Z,99575.88
2023-11-21T12:03:06.697Z,99563.16
2023-11-21T12:05:40.363Z,99547.84
2023-11-21T12:08:08.528Z,99534.09
2023-11-21T12:10:38.087Z,99523.94
2023-11-21T12:13:11.211Z,99508.69
2023-11-21T12:15:39.398Z,99484.97
2023-11-21T12:18:07.060Z,99487.41
2023-11-21T12:20:39.681Z,99474.72
2023-11-21T12:23:06.954Z,99467.06
2023-11-21T12:25:34.328Z,99462.06
2023-11-21T12:28:01.995Z,99457.69
2023-11-21T12:30:32.094Z,99454.22
2023-11-21T12:33:01.692Z,99445.50
2023-11-21T12:35:35.154Z,99434.44
2023-11-21T12:38:06.441Z,99431.75
2023-11-21T12:40:33.358Z,99425.81
2023-11-21T12:43:03.092Z,99434.59
2023-11-21T12:45:30.515Z,99420.94
2023-11-21T12:48:09.128Z,99424.59
2023-11-21T12:50:37.746Z,99434.50
2023-11-21T12:53:06.444Z,99438.66
2023-11-21T12:55:38.725Z,99434.56
2023-11-21T12:58:11.764Z,99434.41
2023-11-21T13:00:44.278Z,99445.63
2023-11-21T13:03:14.373Z,99442.72
2023-11-21T13:05:47.761Z,99442.69
2023-11-21T13:08:20.666Z,99455.88
2023-11-21T13:10:50.831Z,99470.28
2023-11-21T13:13:23.719Z,99471.47
2023-11-21T13:16:01.744Z,99468.88
2023-11-21T13:18:29.614Z,99470.66
2023-11-21T13:20:59.003Z,99472.19
2023-11-21T13:23:26.969Z,99473.75
2023-11-21T13:26:02.440Z,99474.88
2023-11-21T13:28:35.805Z,99469.97
2023-11-21T13:31:10.655Z,99444.50
2023-11-21T13:33:43.949Z,99446.19
2023-11-21T13:36:11.933Z,99439.88
2023-11-21T13:38:43.391Z,99441.69
2023-11-21T13:41:11.528Z,99423.75
2023-11-21T13:43:39.230Z,99411.72
2023-11-21T13:46:16.432Z,99421.22
2023-11-21T13:48:44.191Z,99407.66
2023-11-21T13:51:19.920Z,99414.16
2023-11-21T13:53:49.379Z,99413.22
2023-11-21T13:56:20.857Z,99415.75
2023-11-21T13:58:53.928Z,99426.97
2023-11-21T14:01:25.956Z,99413.69
2023-11-21T14:03:59.165Z,99421.09
2023-11-21T14:06:33.839Z,99420.38
2023-11-21T14:09:01.767Z,99424.47
2023-11-21T14:11:33.062Z,99430.50
2023-11-21T14:14:03.350Z,99439.84
2023-11-21T14:16:29.973Z,99422.63
2023-11-21T14:19:16.841Z,99429.63
2023-11-21T14:21:47.580Z,99436.38
2023-11-21T14:24:14.859Z,99429.63
2023-11-21T14:26:43.254Z,99442.41
2023-11-21T14:29:10.228Z,99453.66
2023-11-21T14:31:37.258Z,99434.75
2023-11-21T14:34:03.990Z,99444.03
2023-11-21T14:36:30.535Z,99462.97
2023-11-21T14:38:57.141Z,99454.53
2023-11-21T14:41:23.759Z,99449.56
2023-11-21T14:43:51.367Z,99453.75
2023-11-21T14:46:20.647Z,99461.34
2023-11-21T14:49:00.748Z,99473.28
2023-11-21T14:51:31.406Z,99476.06
2023-11-21T14:54:07.777Z,99477.97
2023-11-21T14:56:35.678Z,99495.78
2023-11-21T14:59:17.832Z,99500.84
2023-11-21T15:01:56.124Z,99500.91
2023-11-21T15:04:38.567Z,99505.19
2023-11-21T15:07:06.419Z,99505.09
2023-11-21T15:09:33.681Z,99519.63
2023-11-21T15:12:16.683Z,99519.59
2023-11-21T15:14:51.056Z,99509.53
2023-11-21T15:17:27.136Z,99522.31
2023-11-21T15:19:55.056Z,99524.88
2023-11-21T15:22:22.188Z,99533.41
2023-11-21T15:24:50.465Z,99544.56
2023-11-21T15:27:18.177Z,99544.63
2023-11-21T15:29:45.120Z,99550.91
2023-11-21T15:32:12.613Z,99566.16
2023-11-21T15:34:39.871Z,99579.09
2023-11-21T15:37:10.937Z,99585.69
2023-11-21T15:39:38.057Z,99599.31
2023-11-21T15:42:06.074Z,99609.59
2023-11-21T15:44:34.376Z,99612.13
2023-11-21T15:47:01.202Z,99616.44
2023-11-21T15:49:29.737Z,99617.25
2023-11-21T15:52:00.774Z,99623.16
2023-11-21T15:54:27.984Z,99614.66
2023-11-21T15:57:00.494Z,99606.41
2023-11-21T15:59:35.221Z,99619.00
2023-11-21T16:02:05.735Z,99624.22
2023-11-21T16:04:32.564Z,99643.53
2023-11-21T16:07:00.792Z,99637.41
2023-11-21T16:09:34.186Z,99645.81
2023-11-21T16:12:04.701Z,99652.75
2023-11-21T16:14:58.429Z,99645.81
2023-11-21T16:17:25.317Z,99646.53
2023-11-21T16:19:52.150Z,99644.19
2023-11-21T16:22:18.807Z,99641.81
2023-11-21T16:24:45.357Z,99655.38
2023-11-21T16:27:12.250Z,99649.34
2023-11-21T16:29:39.792Z,99652.72
2023-11-21T16:32:07.763Z,99650.16
2023-11-21T16:34:35.371Z,99650.00
2023-11-21T16:37:02.044Z,99657.69
2023-11-21T16:39:29.269Z,99662.03
2023-11-21T16:41:56.058Z,99671.50
2023-11-21T16:44:23.434Z,99673.34
2023-11-21T16:46:57.525Z,99688.47
2023-11-21T16:49:25.061Z,99687.66
2023-11-21T16:51:52.664Z,99684.97
2023-11-21T16:54:21.990Z,99694.50
2023-11-21T16:56:48.683Z,99697.94
2023-11-21T16:59:15.828Z,99703.13
2023-11-21T17:01:43.085Z,99701.44
2023-11-21T17:04:10.710Z,99696.22
2023-11-21T17:06:37.596Z,99702.97
2023-11-21T17:09:05.425Z,99691.88
2023-11-21T17:11:32.524Z,99686.69
2023-11-21T17:14:00.340Z,99677.53
2023-11-21T17:16:27.188Z,99661.47
2023-11-21T17:18:53.825Z,99662.50
2023-11-21T17:21:26.289Z,99662.63
2023-11-21T17:23:56.645Z,99661.66
2023-11-21T17:26:23.525Z,99670.97
2023-11-21T17:28:50.196Z,99665.09
2023-11-21T17:31:19.103Z,99671.88
2023-11-21T17:33:45.927Z,99681.06
2023-11-21T17:36:14.999Z,99678.50
2023-11-21T17:38:41.599Z,99676.22
2023-11-21T17:41:08.957Z,99684.63
2023-11-21T17:43:40.640Z,99696.59
2023-11-21T17:46:09.524Z,99696.69
2023-11-21T17:48:38.006Z,99689.25
2023-11-21T17:51:05.121Z,99696.63
2023-11-21T17:53:32.295Z,99690.13
2023-11-21T17:56:00.027Z,99695.03
2023-11-21T17:58:26.743Z,99682.19
2023-11-21T18:00:54.206Z,99684.03
2023-11-21T18:03:21.858Z,99677.34
2023-11-21T18:05:48.670Z,99679.94
2023-11-21T18:08:15.824Z,99680.59
2023-11-21T18:10:42.500Z,99675.69
2023-11-21T18:13:09.368Z,99681.72
2023-11-21T18:15:36.025Z,99689.19
2023-11-21T18:18:02.784Z,99701.22
2023-11-21T18:20:29.392Z,99686.75
2023-11-21T18:22:55.955Z,99692.78
2023-11-21T18:25:22.785Z,99702.97
2023-11-21T18:27:52.880Z,99692.88
2023-11-21T18:30:19.538Z,99689.41
2023-11-21T18:32:46.334Z,99694.69
2023-11-21T18:35:13.134Z,99692.66
2023-11-21T18:37:39.840Z,99689.41
2023-11-21T18:40:07.154Z,99704.56
2023-11-21T18:42:33.790Z,99688.31
2023-11-21T18:45:00.697Z,99698.16
2023-11-21T18:47:28.493Z,99699.81
2023-11-21T18:49:56.241Z,99711.97
2023-11-21T18:52:24.352Z,99716.91
2023-11-21T18:54:51.214Z,99737.22
2023-11-21T18:57:18.087Z,99730.56
2023-11-21T18:59:45.490Z,99727.03
2023-11-21T19:02:15.290Z,99745.53
2023-11-21T19:04:42.063Z,99743.81
2023-11-21T19:07:09.330Z,99743.78
2023-11-21T19:09:36.691Z,99752.34
2023-11-21T19:12:06.753Z,99742.13
2023-11-21T19:14:33.345Z,99755.94
2023-11-21T19:17:00.414Z,99751.53
2023-11-21T19:19:27.542Z,99759.03
2023-11-21T19:21:55.239Z,99752.75
2023-11-21T19:24:21.997Z,99761.06
2023-11-21T19:26:49.390Z,99766.72
2023-11-21T19:29:16.336Z,99771.06
2023-11-21T19:31:42.911Z,99771.19
2023-11-21T19:34:10.558Z,99783.00
2023-11-21T19:36:40.601Z,99782.91
2023-11-21T19:39:07.194Z,99778.94
2023-11-21T19:41:35.029Z,99779.59
2023-11-21T19:44:02.822Z,99782.41
2023-11-21T19:46:29.518Z,99795.94
2023-11-21T19:48:56.193Z,99803.81
2023-11-21T19:51:23.313Z,99801.34
2023-11-21T19:53:50.131Z,99802.03
2023-11-21T19:56:17.430Z,99810.56
2023-11-21T19:58:44.062Z,99817.19
2023-11-21T20:01:11.202Z,99827.41
2023-11-21T20:03:38.143Z,99825.84
2023-11-21T20:06:06.582Z,99831.22
2023-11-21T20:08:35.815Z,99840.53
2023-11-21T20:11:06.614Z,99843.66
2023-11-21T20:13:33.547Z,99836.09
2023-11-21T20:16:00.888Z,99841.19
2023-11-21T20:18:27.829Z,99838.44
2023-11-21T20:20:54.606Z,99851.13
2023-11-21T20:23:23.075Z,99858.09
2023-11-21T20:25:50.009Z,99855.47
2023-11-21T20:28:17.341Z,99857.16
2023-11-21T20:30:43.892Z,99863.16
2023-11-21T20:33:10.560Z,99862.38
2023-11-21T20:35:38.497Z,99870.78
2023-11-21T20:38:06.364Z,99859.06
2023-11-21T20:40:33.075Z,99873.22
2023-11-21T20:43:03.945Z,99870.19
2023-11-21T20:45:31.822Z,99866.78
2023-11-21T20:47:59.824Z,99878.31
2023-11-21T20:50:27.178Z,99868.09
2023-11-21T20:52:53.949Z,99866.63
2023-11-21T20:55:21.572Z,99874.19
2023-11-21T20:57:50.241Z,99871.91
2023-11-21T21:00:19.378Z,99885.16
2023-11-21T21:02:48.425Z,99890.78
2023-11-21T21:05:16.400Z,99886.84
2023-11-21T21:07:45.899Z,99896.91
2023-11-21T21:10:12.573Z,99894.28
2023-11-21T21:12:40.685Z,99889.31
2023-11-21T21:15:11.079Z,99895.13
2023-11-21T21:17:41.776Z,99892.00
2023-11-21T21:20:11.547Z,99898.91
2023-11-21T21:22:43.496Z,99903.66
2023-11-21T21:25:13.367Z,99900.56
2023-11-21T21:27:40.405Z,99907.59
2023-11-21T21:30:08.148Z,99908.94
2023-11-21T21:32:35.080Z,99907.38
2023-11-21T21:35:02.281Z,99914.75
2023-11-21T21:37:30.435Z,99907.88
2023-11-21T21:39:59.581Z,99904.50
2023-11-21T21:42:26.260Z,99914.56
2023-11-21T21:44:54.298Z,99914.59
2023-11-21T21:47:21.072Z,99910.56
2023-11-21T21:49:48.579Z,99908.91
2023-11-21T21:52:15.598Z,99915.56
2023-11-21T21:54:42.197Z,99915.25
2023-11-21T21:57:09.718Z,99896.47
2023-11-21T21:59:38.944Z,99891.41
2023-11-21T22:02:06.497Z,99898.94
2023-11-21T22:04:35.238Z,99902.88
2023-11-21T22:07:02.180Z,99918.59
2023-11-21T22:09:29.795Z,99911.19
2023-11-21T22:11:57.307Z,99911.84
2023-11-21T22:14:24.074Z,99915.63
2023-11-21T22:16:50.662Z,99916.84
2023-11-21T22:19:17.382Z,99925.44
2023-11-21T22:21:44.274Z,99903.25
2023-11-21T22:24:11.383Z,99912.69
2023-11-21T22:26:37.923Z,99905.22
2023-11-21T22:29:05.669Z,99905.88
2023-11-21T22:31:32.296Z,99896.22
2023-11-21T22:33:58.845Z,99898.25
2023-11-21T22:36:26.037Z,99903.47
2023-11-21T22:38:52.609Z,99899.34
2023-11-21T22:41:26.818Z,99894.00
2023-11-21T22:43:54.770Z,99892.28
2023-11-21T22:46:21.518Z,99903.34
2023-11-21T22:48:49.219Z,99891.94
2023-11-21T22:51:17.303Z,99895.84
2023-11-21T22:53:43.925Z,99890.94
2023-11-21T22:56:12.396Z,99898.25
2023-11-21T22:58:39.387Z,99895.91
2023-11-21T23:01:06.543Z,99903.75
2023-11-21T23:03:33.346Z,99905.31
2023-11-21T23:06:00.018Z,99894.53
2023-11-21T23:08:27.332Z,99901.75
2023-11-21T23:10:54.454Z,99904.72
2023-11-21T23:13:21.414Z,99894.09
2023-11-21T23:15:48.934Z,99907.22
2023-11-21T23:18:15.936Z,99902.78
2023-11-21T23:20:42.711Z,99899.19
2023-11-21T23:23:09.915Z,99895.09
2023-11-21T23:25:37.681Z,99889.94
2023-11-21T23:28:05.352Z,99889.00
2023-11-21T23:30:31.889Z,99885.56
2023-11-21T23:32:58.608Z,99893.09
2023-11-21T23:35:26.290Z,99880.38
2023-11-21T23:37:53.303Z,99872.66
2023-11-21T23:40:19.898Z,99872.97
2023-11-21T23:42:46.414Z,99873.78
2023-11-21T23:45:13.076Z,99880.03
2023-11-21T23:47:39.776Z,99886.84
2023-11-21T23:50:06.726Z,99890.22
2023-11-21T23:52:33.548Z,99874.91
2023-11-21T23:55:00.462Z,99884.31
2023-11-21T23:57:27.011Z,99880.09
2023-11-21T23:59:53.569Z,99878.16
